CheckWX is a tool to help pilots better visualize weather data.  It is not intended as a substitute for an official pre-flight weather briefing.

19:14:50 UTC

CYMH METAR
Mary's Harbour Airport
Mary's Harbour, Canada
Current

1 hour ago

CYMH 261800Z AUTO 08007KT 9SM BKN100 OVC120 03/M01 A3010 RMK SLP194
Observed
May-26 @ 18:00 UTC
Wind
  • 080° at 7 KTS
Visibility
9 SM
Flight Rules
VFR
Cloud Levels
  • Broken at 10,000' AGL
  • Overcast at 12,000' AGL
Temperature
C / 37°F
Dewpoint
-1°C / 30°F
Humidity
75%
Altimeter
30.1" Hg
Pressure
1019.32 hPa
Previous

2 hours ago

CYMH 261700Z AUTO 06007KT 9SM FEW100 BKN120 03/M01 A3009 RMK SLP193
Observed
May-26 @ 17:00 UTC
Wind
  • 060° at 7 KTS
Visibility
9 SM
Flight Rules
VFR
Cloud Levels
  • Few at 10,000' AGL
  • Broken at 12,000' AGL
Temperature
C / 37°F
Dewpoint
-1°C / 30°F
Humidity
75%
Altimeter
30.09" Hg
Pressure
1018.92 hPa
Previous

3 hours ago

CYMH 261614Z AUTO 12004KT 040V150 9SM SCT006 OVC120 02/M01 A3011 RMK SLP197
Observed
May-26 @ 16:14 UTC
Wind
  • 120° at 4 KTS
Visibility
9 SM
Flight Rules
VFR
Cloud Levels
  • Scattered at 600' AGL
  • Overcast at 12,000' AGL
Temperature
C / 36°F
Dewpoint
-1°C / 30°F
Humidity
81%
Altimeter
30.11" Hg
Pressure
1019.62 hPa